sensor_id;sensor_type;location;lat;lon;timestamp;P1;durP1;ratioP1;P2;durP2;ratioP2
19406;SDS011;9839;53.364;-1.204;2024-03-06T00:02:18;11.93;;;7.43;;
19406;SDS011;9839;53.364;-1.204;2024-03-06T00:04:43;13.40;;;7.00;;
19406;SDS011;9839;53.364;-1.204;2024-03-06T00:07:08;11.83;;;6.60;;
19406;SDS011;9839;53.364;-1.204;2024-03-06T00:09:34;12.10;;;6.80;;
19406;SDS011;9839;53.364;-1.204;2024-03-06T00:11:59;14.87;;;7.53;;
19406;SDS011;9839;53.364;-1.204;2024-03-06T00:14:25;14.63;;;8.20;;
19406;SDS011;9839;53.364;-1.204;2024-03-06T00:16:50;16.30;;;8.93;;
19406;SDS011;9839;53.364;-1.204;2024-03-06T00:19:16;12.90;;;7.47;;
19406;SDS011;9839;53.364;-1.204;2024-03-06T00:21:45;13.63;;;6.93;;
19406;SDS011;9839;53.364;-1.204;2024-03-06T00:24:13;16.13;;;7.17;;
19406;SDS011;9839;53.364;-1.204;2024-03-06T00:26:40;13.93;;;7.30;;
19406;SDS011;9839;53.364;-1.204;2024-03-06T00:29:06;12.93;;;6.83;;
19406;SDS011;9839;53.364;-1.204;2024-03-06T00:31:31;14.03;;;7.50;;
19406;SDS011;9839;53.364;-1.204;2024-03-06T00:33:57;17.00;;;8.43;;
19406;SDS011;9839;53.364;-1.204;2024-03-06T00:36:22;19.77;;;9.53;;
19406;SDS011;9839;53.364;-1.204;2024-03-06T00:38:47;17.93;;;9.00;;
19406;SDS011;9839;53.364;-1.204;2024-03-06T00:41:13;19.97;;;8.60;;
19406;SDS011;9839;53.364;-1.204;2024-03-06T00:43:38;15.00;;;8.50;;
19406;SDS011;9839;53.364;-1.204;2024-03-06T00:46:04;16.50;;;8.47;;
19406;SDS011;9839;53.364;-1.204;2024-03-06T00:48:29;16.27;;;7.90;;
19406;SDS011;9839;53.364;-1.204;2024-03-06T00:50:54;18.63;;;9.80;;
19406;SDS011;9839;53.364;-1.204;2024-03-06T00:53:20;20.40;;;8.97;;
19406;SDS011;9839;53.364;-1.204;2024-03-06T00:55:46;16.13;;;9.43;;
19406;SDS011;9839;53.364;-1.204;2024-03-06T00:58:11;19.63;;;9.43;;
19406;SDS011;9839;53.364;-1.204;2024-03-06T01:00:36;11.77;;;7.60;;
19406;SDS011;9839;53.364;-1.204;2024-03-06T01:03:03;15.73;;;8.47;;
19406;SDS011;9839;53.364;-1.204;2024-03-06T01:05:28;17.60;;;8.83;;
19406;SDS011;9839;53.364;-1.204;2024-03-06T01:07:54;14.23;;;8.83;;
19406;SDS011;9839;53.364;-1.204;2024-03-06T01:10:19;17.57;;;9.20;;
19406;SDS011;9839;53.364;-1.204;2024-03-06T01:12:45;17.37;;;9.30;;
19406;SDS011;9839;53.364;-1.204;2024-03-06T01:15:10;17.57;;;9.17;;
19406;SDS011;9839;53.364;-1.204;2024-03-06T01:17:36;16.27;;;9.67;;
19406;SDS011;9839;53.364;-1.204;2024-03-06T01:20:01;17.73;;;9.27;;
19406;SDS011;9839;53.364;-1.204;2024-03-06T01:22:28;15.70;;;9.37;;
19406;SDS011;9839;53.364;-1.204;2024-03-06T01:24:54;19.23;;;9.80;;
19406;SDS011;9839;53.364;-1.204;2024-03-06T01:27:19;15.63;;;8.30;;
19406;SDS011;9839;53.364;-1.204;2024-03-06T01:29:45;20.17;;;9.67;;
19406;SDS011;9839;53.364;-1.204;2024-03-06T01:32:11;16.43;;;9.20;;
19406;SDS011;9839;53.364;-1.204;2024-03-06T01:34:36;14.20;;;9.10;;
19406;SDS011;9839;53.364;-1.204;2024-03-06T01:37:02;13.93;;;7.57;;
19406;SDS011;9839;53.364;-1.204;2024-03-06T01:39:27;13.20;;;7.83;;
19406;SDS011;9839;53.364;-1.204;2024-03-06T01:41:53;15.90;;;8.43;;
19406;SDS011;9839;53.364;-1.204;2024-03-06T01:44:18;13.87;;;8.10;;
19406;SDS011;9839;53.364;-1.204;2024-03-06T01:46:44;16.40;;;9.03;;
19406;SDS011;9839;53.364;-1.204;2024-03-06T01:49:10;15.47;;;7.83;;
19406;SDS011;9839;53.364;-1.204;2024-03-06T01:51:37;13.77;;;7.50;;
19406;SDS011;9839;53.364;-1.204;2024-03-06T01:54:02;13.47;;;7.80;;
19406;SDS011;9839;53.364;-1.204;2024-03-06T01:56:32;17.50;;;8.33;;
19406;SDS011;9839;53.364;-1.204;2024-03-06T01:58:58;16.27;;;8.70;;
19406;SDS011;9839;53.364;-1.204;2024-03-06T02:01:24;18.93;;;9.47;;
19406;SDS011;9839;53.364;-1.204;2024-03-06T02:03:49;17.87;;;9.43;;
19406;SDS011;9839;53.364;-1.204;2024-03-06T02:06:16;17.60;;;9.50;;
19406;SDS011;9839;53.364;-1.204;2024-03-06T02:08:45;20.47;;;9.10;;
19406;SDS011;9839;53.364;-1.204;2024-03-06T02:11:11;21.47;;;10.17;;
19406;SDS011;9839;53.364;-1.204;2024-03-06T02:13:37;18.50;;;9.40;;
19406;SDS011;9839;53.364;-1.204;2024-03-06T02:16:03;18.47;;;9.43;;
19406;SDS011;9839;53.364;-1.204;2024-03-06T02:18:29;21.30;;;9.50;;
19406;SDS011;9839;53.364;-1.204;2024-03-06T02:20:54;15.63;;;8.83;;
19406;SDS011;9839;53.364;-1.204;2024-03-06T02:23:20;19.17;;;9.70;;
19406;SDS011;9839;53.364;-1.204;2024-03-06T02:25:47;19.93;;;10.27;;
19406;SDS011;9839;53.364;-1.204;2024-03-06T02:28:13;24.77;;;12.87;;
19406;SDS011;9839;53.364;-1.204;2024-03-06T02:30:38;30.63;;;13.77;;
19406;SDS011;9839;53.364;-1.204;2024-03-06T02:33:04;25.27;;;13.27;;
19406;SDS011;9839;53.364;-1.204;2024-03-06T02:35:30;32.03;;;14.70;;
19406;SDS011;9839;53.364;-1.204;2024-03-06T02:37:56;32.07;;;14.43;;
19406;SDS011;9839;53.364;-1.204;2024-03-06T02:40:24;37.40;;;17.73;;
19406;SDS011;9839;53.364;-1.204;2024-03-06T02:42:49;36.10;;;16.90;;
19406;SDS011;9839;53.364;-1.204;2024-03-06T02:45:14;37.10;;;16.80;;
19406;SDS011;9839;53.364;-1.204;2024-03-06T02:47:40;33.77;;;16.33;;
19406;SDS011;9839;53.364;-1.204;2024-03-06T02:50:05;40.00;;;16.00;;
19406;SDS011;9839;53.364;-1.204;2024-03-06T02:52:32;36.80;;;16.33;;
19406;SDS011;9839;53.364;-1.204;2024-03-06T02:54:57;37.43;;;16.63;;
19406;SDS011;9839;53.364;-1.204;2024-03-06T02:57:23;36.87;;;17.67;;
19406;SDS011;9839;53.364;-1.204;2024-03-06T02:59:48;34.80;;;16.30;;
19406;SDS011;9839;53.364;-1.204;2024-03-06T03:02:14;34.03;;;16.83;;
19406;SDS011;9839;53.364;-1.204;2024-03-06T03:04:39;39.77;;;16.70;;
19406;SDS011;9839;53.364;-1.204;2024-03-06T03:07:05;35.57;;;16.40;;
19406;SDS011;9839;53.364;-1.204;2024-03-06T03:09:30;31.20;;;16.30;;
19406;SDS011;9839;53.364;-1.204;2024-03-06T03:11:55;37.47;;;17.20;;
19406;SDS011;9839;53.364;-1.204;2024-03-06T03:14:22;36.70;;;15.43;;
19406;SDS011;9839;53.364;-1.204;2024-03-06T03:16:47;31.10;;;15.40;;
19406;SDS011;9839;53.364;-1.204;2024-03-06T03:19:13;32.50;;;15.70;;
19406;SDS011;9839;53.364;-1.204;2024-03-06T03:21:41;37.13;;;16.90;;
19406;SDS011;9839;53.364;-1.204;2024-03-06T03:24:08;33.63;;;15.67;;
19406;SDS011;9839;53.364;-1.204;2024-03-06T03:26:33;33.70;;;15.50;;
19406;SDS011;9839;53.364;-1.204;2024-03-06T03:28:59;31.33;;;14.90;;
19406;SDS011;9839;53.364;-1.204;2024-03-06T03:31:24;29.40;;;15.10;;
19406;SDS011;9839;53.364;-1.204;2024-03-06T03:33:49;31.63;;;15.63;;
19406;SDS011;9839;53.364;-1.204;2024-03-06T03:36:15;35.43;;;16.13;;
19406;SDS011;9839;53.364;-1.204;2024-03-06T03:38:40;31.07;;;15.33;;
19406;SDS011;9839;53.364;-1.204;2024-03-06T03:41:09;33.00;;;16.03;;
19406;SDS011;9839;53.364;-1.204;2024-03-06T03:43:35;32.13;;;16.00;;
19406;SDS011;9839;53.364;-1.204;2024-03-06T03:46:00;35.63;;;16.27;;
19406;SDS011;9839;53.364;-1.204;2024-03-06T03:48:26;35.50;;;16.57;;
19406;SDS011;9839;53.364;-1.204;2024-03-06T03:50:51;35.10;;;16.30;;
19406;SDS011;9839;53.364;-1.204;2024-03-06T03:53:16;38.27;;;17.57;;
19406;SDS011;9839;53.364;-1.204;2024-03-06T03:55:42;35.70;;;17.70;;
19406;SDS011;9839;53.364;-1.204;2024-03-06T03:58:07;32.27;;;16.30;;
19406;SDS011;9839;53.364;-1.204;2024-03-06T04:00:32;34.63;;;15.67;;
19406;SDS011;9839;53.364;-1.204;2024-03-06T04:02:58;31.57;;;16.80;;
19406;SDS011;9839;53.364;-1.204;2024-03-06T04:05:23;31.23;;;15.90;;
19406;SDS011;9839;53.364;-1.204;2024-03-06T04:07:50;31.13;;;14.73;;
19406;SDS011;9839;53.364;-1.204;2024-03-06T04:10:16;28.03;;;14.63;;
19406;SDS011;9839;53.364;-1.204;2024-03-06T04:12:41;27.73;;;13.47;;
19406;SDS011;9839;53.364;-1.204;2024-03-06T04:15:07;26.10;;;14.23;;
19406;SDS011;9839;53.364;-1.204;2024-03-06T04:17:33;30.30;;;15.47;;
19406;SDS011;9839;53.364;-1.204;2024-03-06T04:19:59;32.97;;;16.37;;
19406;SDS011;9839;53.364;-1.204;2024-03-06T04:22:25;32.00;;;16.70;;
19406;SDS011;9839;53.364;-1.204;2024-03-06T04:24:51;37.10;;;17.90;;
19406;SDS011;9839;53.364;-1.204;2024-03-06T04:27:16;28.63;;;15.07;;
19406;SDS011;9839;53.364;-1.204;2024-03-06T04:29:42;34.37;;;17.03;;
19406;SDS011;9839;53.364;-1.204;2024-03-06T04:32:07;37.90;;;18.30;;
19406;SDS011;9839;53.364;-1.204;2024-03-06T04:34:32;42.27;;;21.20;;
19406;SDS011;9839;53.364;-1.204;2024-03-06T04:36:58;49.97;;;22.97;;
19406;SDS011;9839;53.364;-1.204;2024-03-06T04:39:23;50.60;;;20.20;;
19406;SDS011;9839;53.364;-1.204;2024-03-06T04:41:48;44.10;;;19.87;;
19406;SDS011;9839;53.364;-1.204;2024-03-06T04:44:14;46.50;;;20.80;;
19406;SDS011;9839;53.364;-1.204;2024-03-06T04:46:39;52.70;;;23.10;;
19406;SDS011;9839;53.364;-1.204;2024-03-06T04:49:05;49.30;;;22.23;;
19406;SDS011;9839;53.364;-1.204;2024-03-06T04:51:30;49.93;;;22.67;;
19406;SDS011;9839;53.364;-1.204;2024-03-06T04:53:55;52.83;;;22.77;;
19406;SDS011;9839;53.364;-1.204;2024-03-06T04:56:20;52.97;;;21.67;;
19406;SDS011;9839;53.364;-1.204;2024-03-06T04:58:47;47.97;;;19.80;;
19406;SDS011;9839;53.364;-1.204;2024-03-06T05:01:12;41.93;;;18.93;;
19406;SDS011;9839;53.364;-1.204;2024-03-06T05:03:38;40.43;;;18.20;;
19406;SDS011;9839;53.364;-1.204;2024-03-06T05:06:06;44.47;;;19.83;;
19406;SDS011;9839;53.364;-1.204;2024-03-06T05:08:32;49.00;;;21.17;;
19406;SDS011;9839;53.364;-1.204;2024-03-06T05:10:59;41.83;;;20.20;;
19406;SDS011;9839;53.364;-1.204;2024-03-06T05:13:25;50.70;;;21.47;;
19406;SDS011;9839;53.364;-1.204;2024-03-06T05:15:51;48.37;;;20.73;;
19406;SDS011;9839;53.364;-1.204;2024-03-06T05:18:17;66.27;;;23.47;;
19406;SDS011;9839;53.364;-1.204;2024-03-06T05:20:42;56.03;;;21.60;;
19406;SDS011;9839;53.364;-1.204;2024-03-06T05:23:08;54.53;;;21.93;;
19406;SDS011;9839;53.364;-1.204;2024-03-06T05:25:33;54.77;;;22.17;;
19406;SDS011;9839;53.364;-1.204;2024-03-06T05:27:59;69.77;;;24.87;;
19406;SDS011;9839;53.364;-1.204;2024-03-06T05:30:24;74.67;;;24.30;;
19406;SDS011;9839;53.364;-1.204;2024-03-06T05:32:50;76.30;;;23.80;;
19406;SDS011;9839;53.364;-1.204;2024-03-06T05:35:15;52.80;;;20.57;;
19406;SDS011;9839;53.364;-1.204;2024-03-06T05:37:41;66.57;;;23.10;;
19406;SDS011;9839;53.364;-1.204;2024-03-06T05:40:08;63.43;;;23.10;;
19406;SDS011;9839;53.364;-1.204;2024-03-06T05:42:34;95.00;;;28.27;;
19406;SDS011;9839;53.364;-1.204;2024-03-06T05:44:59;84.97;;;26.17;;
19406;SDS011;9839;53.364;-1.204;2024-03-06T05:47:35;91.00;;;28.67;;
19406;SDS011;9839;53.364;-1.204;2024-03-06T05:50:03;81.67;;;28.77;;
19406;SDS011;9839;53.364;-1.204;2024-03-06T05:52:32;83.53;;;28.27;;
19406;SDS011;9839;53.364;-1.204;2024-03-06T05:54:58;99.83;;;30.87;;
19406;SDS011;9839;53.364;-1.204;2024-03-06T05:57:24;104.87;;;30.50;;
19406;SDS011;9839;53.364;-1.204;2024-03-06T05:59:49;99.60;;;30.10;;
19406;SDS011;9839;53.364;-1.204;2024-03-06T06:02:15;88.77;;;30.77;;
19406;SDS011;9839;53.364;-1.204;2024-03-06T06:04:44;112.47;;;31.03;;
19406;SDS011;9839;53.364;-1.204;2024-03-06T06:07:10;97.83;;;29.97;;
19406;SDS011;9839;53.364;-1.204;2024-03-06T06:09:35;85.67;;;29.13;;
19406;SDS011;9839;53.364;-1.204;2024-03-06T06:12:01;89.00;;;30.50;;
19406;SDS011;9839;53.364;-1.204;2024-03-06T06:14:26;98.17;;;29.87;;
19406;SDS011;9839;53.364;-1.204;2024-03-06T06:16:54;89.43;;;30.33;;
19406;SDS011;9839;53.364;-1.204;2024-03-06T06:19:20;91.90;;;29.17;;
19406;SDS011;9839;53.364;-1.204;2024-03-06T06:21:46;103.30;;;30.77;;
19406;SDS011;9839;53.364;-1.204;2024-03-06T06:24:12;89.10;;;29.77;;
19406;SDS011;9839;53.364;-1.204;2024-03-06T06:26:38;97.10;;;28.53;;
19406;SDS011;9839;53.364;-1.204;2024-03-06T06:29:04;89.07;;;27.30;;
19406;SDS011;9839;53.364;-1.204;2024-03-06T06:31:29;92.83;;;29.13;;
19406;SDS011;9839;53.364;-1.204;2024-03-06T06:33:54;95.83;;;27.63;;
19406;SDS011;9839;53.364;-1.204;2024-03-06T06:36:20;80.03;;;25.67;;
19406;SDS011;9839;53.364;-1.204;2024-03-06T06:38:46;68.80;;;25.53;;
19406;SDS011;9839;53.364;-1.204;2024-03-06T06:41:13;70.10;;;23.27;;
19406;SDS011;9839;53.364;-1.204;2024-03-06T06:43:38;72.20;;;22.37;;
19406;SDS011;9839;53.364;-1.204;2024-03-06T06:46:05;64.50;;;22.33;;
19406;SDS011;9839;53.364;-1.204;2024-03-06T06:48:31;61.07;;;22.17;;
19406;SDS011;9839;53.364;-1.204;2024-03-06T06:50:58;52.83;;;21.13;;
19406;SDS011;9839;53.364;-1.204;2024-03-06T06:53:25;65.40;;;22.77;;
19406;SDS011;9839;53.364;-1.204;2024-03-06T06:55:50;59.67;;;21.60;;
19406;SDS011;9839;53.364;-1.204;2024-03-06T06:58:16;75.73;;;22.80;;
19406;SDS011;9839;53.364;-1.204;2024-03-06T07:00:41;63.03;;;24.17;;
19406;SDS011;9839;53.364;-1.204;2024-03-06T07:03:07;60.47;;;23.93;;
19406;SDS011;9839;53.364;-1.204;2024-03-06T07:05:32;69.00;;;23.30;;
19406;SDS011;9839;53.364;-1.204;2024-03-06T07:07:58;61.43;;;24.73;;
19406;SDS011;9839;53.364;-1.204;2024-03-06T07:10:23;63.50;;;23.47;;
19406;SDS011;9839;53.364;-1.204;2024-03-06T07:12:48;63.20;;;25.13;;
19406;SDS011;9839;53.364;-1.204;2024-03-06T07:15:14;68.30;;;22.63;;
19406;SDS011;9839;53.364;-1.204;2024-03-06T07:17:39;65.73;;;25.27;;
19406;SDS011;9839;53.364;-1.204;2024-03-06T07:20:05;74.67;;;25.13;;
19406;SDS011;9839;53.364;-1.204;2024-03-06T07:22:31;73.23;;;26.37;;
19406;SDS011;9839;53.364;-1.204;2024-03-06T07:24:56;70.63;;;24.00;;
19406;SDS011;9839;53.364;-1.204;2024-03-06T07:27:22;67.20;;;25.00;;
19406;SDS011;9839;53.364;-1.204;2024-03-06T07:29:47;68.77;;;25.17;;
19406;SDS011;9839;53.364;-1.204;2024-03-06T07:32:12;72.27;;;25.70;;
19406;SDS011;9839;53.364;-1.204;2024-03-06T07:34:38;74.77;;;26.73;;
19406;SDS011;9839;53.364;-1.204;2024-03-06T07:37:03;69.43;;;26.57;;
19406;SDS011;9839;53.364;-1.204;2024-03-06T07:39:29;93.07;;;34.33;;
19406;SDS011;9839;53.364;-1.204;2024-03-06T07:41:56;108.67;;;37.60;;
19406;SDS011;9839;53.364;-1.204;2024-03-06T07:44:21;124.00;;;41.17;;
19406;SDS011;9839;53.364;-1.204;2024-03-06T07:46:47;110.47;;;39.13;;
19406;SDS011;9839;53.364;-1.204;2024-03-06T07:49:13;110.10;;;42.43;;
19406;SDS011;9839;53.364;-1.204;2024-03-06T07:51:38;117.03;;;39.63;;
19406;SDS011;9839;53.364;-1.204;2024-03-06T07:54:05;117.73;;;38.77;;
19406;SDS011;9839;53.364;-1.204;2024-03-06T07:56:31;115.70;;;39.17;;
19406;SDS011;9839;53.364;-1.204;2024-03-06T07:58:56;95.17;;;34.63;;
19406;SDS011;9839;53.364;-1.204;2024-03-06T08:01:22;95.80;;;30.83;;
19406;SDS011;9839;53.364;-1.204;2024-03-06T08:03:47;92.67;;;31.00;;
19406;SDS011;9839;53.364;-1.204;2024-03-06T08:06:13;88.70;;;29.67;;
19406;SDS011;9839;53.364;-1.204;2024-03-06T08:08:41;77.00;;;27.43;;
19406;SDS011;9839;53.364;-1.204;2024-03-06T08:11:09;84.10;;;26.47;;
19406;SDS011;9839;53.364;-1.204;2024-03-06T08:13:36;87.70;;;27.60;;
19406;SDS011;9839;53.364;-1.204;2024-03-06T08:16:01;68.07;;;26.33;;
19406;SDS011;9839;53.364;-1.204;2024-03-06T08:18:27;75.00;;;25.47;;
19406;SDS011;9839;53.364;-1.204;2024-03-06T08:20:52;81.17;;;27.20;;
19406;SDS011;9839;53.364;-1.204;2024-03-06T08:23:18;83.57;;;26.13;;
19406;SDS011;9839;53.364;-1.204;2024-03-06T08:25:43;82.43;;;26.97;;
19406;SDS011;9839;53.364;-1.204;2024-03-06T08:28:08;70.83;;;24.57;;
19406;SDS011;9839;53.364;-1.204;2024-03-06T08:30:34;62.30;;;23.47;;
19406;SDS011;9839;53.364;-1.204;2024-03-06T08:33:00;60.27;;;22.67;;
19406;SDS011;9839;53.364;-1.204;2024-03-06T08:35:25;63.63;;;22.37;;
19406;SDS011;9839;53.364;-1.204;2024-03-06T08:37:51;62.83;;;23.37;;
19406;SDS011;9839;53.364;-1.204;2024-03-06T08:40:17;59.00;;;22.50;;
19406;SDS011;9839;53.364;-1.204;2024-03-06T08:42:49;52.33;;;22.30;;
19406;SDS011;9839;53.364;-1.204;2024-03-06T08:45:15;57.73;;;22.43;;
19406;SDS011;9839;53.364;-1.204;2024-03-06T08:47:43;63.20;;;22.30;;
19406;SDS011;9839;53.364;-1.204;2024-03-06T08:50:09;61.60;;;22.73;;
19406;SDS011;9839;53.364;-1.204;2024-03-06T08:52:35;66.60;;;24.70;;
19406;SDS011;9839;53.364;-1.204;2024-03-06T08:55:01;75.00;;;24.07;;
19406;SDS011;9839;53.364;-1.204;2024-03-06T08:57:29;59.33;;;21.63;;
19406;SDS011;9839;53.364;-1.204;2024-03-06T08:59:56;74.57;;;26.77;;
19406;SDS011;9839;53.364;-1.204;2024-03-06T09:02:21;65.37;;;24.73;;
19406;SDS011;9839;53.364;-1.204;2024-03-06T09:04:47;71.33;;;24.00;;
19406;SDS011;9839;53.364;-1.204;2024-03-06T09:07:12;67.73;;;24.00;;
19406;SDS011;9839;53.364;-1.204;2024-03-06T09:09:39;59.57;;;21.23;;
19406;SDS011;9839;53.364;-1.204;2024-03-06T09:12:05;48.87;;;20.37;;
19406;SDS011;9839;53.364;-1.204;2024-03-06T09:14:34;61.47;;;21.00;;
19406;SDS011;9839;53.364;-1.204;2024-03-06T09:17:00;54.87;;;19.63;;
19406;SDS011;9839;53.364;-1.204;2024-03-06T09:19:26;48.87;;;18.37;;
19406;SDS011;9839;53.364;-1.204;2024-03-06T09:21:51;52.37;;;18.30;;
19406;SDS011;9839;53.364;-1.204;2024-03-06T09:24:17;52.03;;;19.00;;
19406;SDS011;9839;53.364;-1.204;2024-03-06T09:26:43;44.73;;;17.80;;
19406;SDS011;9839;53.364;-1.204;2024-03-06T09:29:10;55.93;;;19.97;;
19406;SDS011;9839;53.364;-1.204;2024-03-06T09:31:35;54.23;;;19.57;;
19406;SDS011;9839;53.364;-1.204;2024-03-06T09:34:02;51.17;;;19.03;;
19406;SDS011;9839;53.364;-1.204;2024-03-06T09:36:27;48.10;;;19.23;;
19406;SDS011;9839;53.364;-1.204;2024-03-06T09:38:53;43.47;;;18.60;;
19406;SDS011;9839;53.364;-1.204;2024-03-06T09:41:18;51.43;;;18.10;;
19406;SDS011;9839;53.364;-1.204;2024-03-06T09:43:44;42.23;;;17.00;;
19406;SDS011;9839;53.364;-1.204;2024-03-06T09:46:10;40.37;;;16.13;;
19406;SDS011;9839;53.364;-1.204;2024-03-06T09:48:35;36.83;;;16.03;;
19406;SDS011;9839;53.364;-1.204;2024-03-06T09:51:01;38.70;;;14.73;;
19406;SDS011;9839;53.364;-1.204;2024-03-06T09:53:29;39.30;;;14.67;;
19406;SDS011;9839;53.364;-1.204;2024-03-06T09:55:56;41.37;;;16.23;;
19406;SDS011;9839;53.364;-1.204;2024-03-06T09:58:22;40.90;;;16.63;;
19406;SDS011;9839;53.364;-1.204;2024-03-06T10:00:48;45.50;;;16.83;;
19406;SDS011;9839;53.364;-1.204;2024-03-06T10:03:15;41.90;;;17.50;;
19406;SDS011;9839;53.364;-1.204;2024-03-06T10:05:40;36.67;;;17.17;;
19406;SDS011;9839;53.364;-1.204;2024-03-06T10:08:06;40.60;;;17.70;;
19406;SDS011;9839;53.364;-1.204;2024-03-06T10:10:31;43.60;;;18.93;;
19406;SDS011;9839;53.364;-1.204;2024-03-06T10:12:57;44.40;;;19.10;;
19406;SDS011;9839;53.364;-1.204;2024-03-06T10:15:22;41.23;;;19.20;;
19406;SDS011;9839;53.364;-1.204;2024-03-06T10:17:48;43.17;;;17.47;;
19406;SDS011;9839;53.364;-1.204;2024-03-06T10:22:45;39.23;;;19.10;;
19406;SDS011;9839;53.364;-1.204;2024-03-06T10:25:12;43.53;;;17.47;;
19406;SDS011;9839;53.364;-1.204;2024-03-06T10:27:37;35.90;;;17.40;;
19406;SDS011;9839;53.364;-1.204;2024-03-06T10:30:03;34.50;;;16.47;;
19406;SDS011;9839;53.364;-1.204;2024-03-06T10:32:32;29.10;;;14.53;;
19406;SDS011;9839;53.364;-1.204;2024-03-06T10:34:57;39.67;;;16.20;;
19406;SDS011;9839;53.364;-1.204;2024-03-06T10:37:23;44.03;;;16.23;;
19406;SDS011;9839;53.364;-1.204;2024-03-06T10:39:50;38.53;;;16.13;;
19406;SDS011;9839;53.364;-1.204;2024-03-06T10:42:19;38.13;;;17.50;;
19406;SDS011;9839;53.364;-1.204;2024-03-06T10:44:55;32.20;;;15.10;;
19406;SDS011;9839;53.364;-1.204;2024-03-06T10:47:24;29.37;;;15.33;;
19406;SDS011;9839;53.364;-1.204;2024-03-06T10:49:51;34.47;;;15.83;;
19406;SDS011;9839;53.364;-1.204;2024-03-06T10:52:18;37.27;;;15.67;;
19406;SDS011;9839;53.364;-1.204;2024-03-06T10:54:44;43.77;;;16.10;;
19406;SDS011;9839;53.364;-1.204;2024-03-06T10:57:11;38.72;;;15.73;;
19406;SDS011;9839;53.364;-1.204;2024-03-06T10:59:37;36.10;;;15.70;;
19406;SDS011;9839;53.364;-1.204;2024-03-06T11:02:03;31.53;;;13.40;;
19406;SDS011;9839;53.364;-1.204;2024-03-06T11:04:29;29.50;;;14.07;;
19406;SDS011;9839;53.364;-1.204;2024-03-06T11:06:58;26.20;;;13.10;;
19406;SDS011;9839;53.364;-1.204;2024-03-06T11:09:25;26.63;;;12.83;;
19406;SDS011;9839;53.364;-1.204;2024-03-06T11:11:54;27.93;;;13.40;;
19406;SDS011;9839;53.364;-1.204;2024-03-06T11:14:21;26.75;;;11.68;;
19406;SDS011;9839;53.364;-1.204;2024-03-06T11:19:21;26.73;;;11.90;;
19406;SDS011;9839;53.364;-1.204;2024-03-06T11:21:47;25.95;;;12.15;;
19406;SDS011;9839;53.364;-1.204;2024-03-06T11:24:15;25.25;;;12.35;;
19406;SDS011;9839;53.364;-1.204;2024-03-06T11:27:01;26.73;;;12.32;;
19406;SDS011;9839;53.364;-1.204;2024-03-06T11:32:35;30.08;;;13.20;;
19406;SDS011;9839;53.364;-1.204;2024-03-06T11:35:01;23.95;;;11.95;;
19406;SDS011;9839;53.364;-1.204;2024-03-06T11:37:26;28.95;;;13.38;;
19406;SDS011;9839;53.364;-1.204;2024-03-06T11:39:52;25.75;;;12.27;;
19406;SDS011;9839;53.364;-1.204;2024-03-06T11:42:34;25.25;;;12.57;;
19406;SDS011;9839;53.364;-1.204;2024-03-06T11:45:16;21.77;;;12.32;;
19406;SDS011;9839;53.364;-1.204;2024-03-06T11:50:26;26.55;;;12.00;;
19406;SDS011;9839;53.364;-1.204;2024-03-06T11:52:58;20.85;;;11.73;;
19406;SDS011;9839;53.364;-1.204;2024-03-06T11:55:24;20.20;;;10.18;;
19406;SDS011;9839;53.364;-1.204;2024-03-06T11:57:53;25.15;;;11.45;;
19406;SDS011;9839;53.364;-1.204;2024-03-06T12:00:21;26.50;;;11.98;;
19406;SDS011;9839;53.364;-1.204;2024-03-06T12:02:48;22.00;;;11.80;;
19406;SDS011;9839;53.364;-1.204;2024-03-06T12:05:13;25.85;;;11.50;;
19406;SDS011;9839;53.364;-1.204;2024-03-06T12:07:48;19.35;;;9.13;;
19406;SDS011;9839;53.364;-1.204;2024-03-06T12:10:15;25.65;;;10.35;;
19406;SDS011;9839;53.364;-1.204;2024-03-06T12:12:41;24.52;;;11.07;;
19406;SDS011;9839;53.364;-1.204;2024-03-06T12:15:09;22.40;;;12.00;;
19406;SDS011;9839;53.364;-1.204;2024-03-06T12:17:45;26.30;;;12.35;;
19406;SDS011;9839;53.364;-1.204;2024-03-06T12:20:13;23.63;;;11.90;;
19406;SDS011;9839;53.364;-1.204;2024-03-06T12:22:58;30.33;;;13.43;;
19406;SDS011;9839;53.364;-1.204;2024-03-06T12:25:25;35.85;;;13.77;;
19406;SDS011;9839;53.364;-1.204;2024-03-06T12:27:51;32.67;;;15.27;;
19406;SDS011;9839;53.364;-1.204;2024-03-06T12:30:18;34.95;;;16.13;;
19406;SDS011;9839;53.364;-1.204;2024-03-06T12:32:55;30.42;;;13.98;;
19406;SDS011;9839;53.364;-1.204;2024-03-06T12:35:28;28.13;;;13.50;;
19406;SDS011;9839;53.364;-1.204;2024-03-06T12:37:53;25.25;;;12.82;;
19406;SDS011;9839;53.364;-1.204;2024-03-06T12:40:19;20.30;;;10.27;;
19406;SDS011;9839;53.364;-1.204;2024-03-06T12:42:44;20.88;;;11.15;;
19406;SDS011;9839;53.364;-1.204;2024-03-06T12:45:14;27.38;;;11.57;;
19406;SDS011;9839;53.364;-1.204;2024-03-06T12:47:40;19.40;;;10.50;;
19406;SDS011;9839;53.364;-1.204;2024-03-06T12:50:06;19.88;;;10.15;;
19406;SDS011;9839;53.364;-1.204;2024-03-06T12:52:33;22.80;;;10.38;;
19406;SDS011;9839;53.364;-1.204;2024-03-06T12:54:59;19.73;;;9.63;;
19406;SDS011;9839;53.364;-1.204;2024-03-06T12:57:24;17.23;;;9.35;;
19406;SDS011;9839;53.364;-1.204;2024-03-06T12:59:50;27.63;;;9.85;;
19406;SDS011;9839;53.364;-1.204;2024-03-06T13:02:15;22.10;;;10.75;;
19406;SDS011;9839;53.364;-1.204;2024-03-06T13:04:41;22.90;;;10.38;;
19406;SDS011;9839;53.364;-1.204;2024-03-06T13:07:06;23.38;;;11.30;;
19406;SDS011;9839;53.364;-1.204;2024-03-06T13:09:31;19.20;;;9.80;;
19406;SDS011;9839;53.364;-1.204;2024-03-06T13:11:57;21.30;;;9.68;;
19406;SDS011;9839;53.364;-1.204;2024-03-06T13:14:22;16.55;;;8.10;;
19406;SDS011;9839;53.364;-1.204;2024-03-06T13:16:47;20.00;;;9.48;;
19406;SDS011;9839;53.364;-1.204;2024-03-06T13:19:13;21.08;;;9.35;;
19406;SDS011;9839;53.364;-1.204;2024-03-06T13:21:38;17.23;;;9.45;;
19406;SDS011;9839;53.364;-1.204;2024-03-06T13:24:04;18.05;;;9.32;;
19406;SDS011;9839;53.364;-1.204;2024-03-06T13:26:29;16.90;;;8.45;;
19406;SDS011;9839;53.364;-1.204;2024-03-06T13:28:55;20.55;;;10.13;;
19406;SDS011;9839;53.364;-1.204;2024-03-06T13:31:20;24.95;;;10.60;;
19406;SDS011;9839;53.364;-1.204;2024-03-06T13:33:45;20.70;;;10.93;;
19406;SDS011;9839;53.364;-1.204;2024-03-06T13:36:10;26.42;;;11.45;;
19406;SDS011;9839;53.364;-1.204;2024-03-06T13:38:36;25.75;;;12.30;;
19406;SDS011;9839;53.364;-1.204;2024-03-06T13:41:01;25.67;;;12.30;;
19406;SDS011;9839;53.364;-1.204;2024-03-06T13:43:27;25.95;;;11.27;;
19406;SDS011;9839;53.364;-1.204;2024-03-06T13:45:53;20.75;;;11.25;;
19406;SDS011;9839;53.364;-1.204;2024-03-06T13:48:19;25.52;;;10.32;;
19406;SDS011;9839;53.364;-1.204;2024-03-06T13:50:45;23.52;;;10.40;;
19406;SDS011;9839;53.364;-1.204;2024-03-06T13:53:11;24.25;;;11.07;;
19406;SDS011;9839;53.364;-1.204;2024-03-06T13:55:37;23.48;;;11.85;;
19406;SDS011;9839;53.364;-1.204;2024-03-06T13:58:02;28.33;;;12.00;;
19406;SDS011;9839;53.364;-1.204;2024-03-06T14:00:28;30.08;;;12.95;;
19406;SDS011;9839;53.364;-1.204;2024-03-06T14:02:54;28.42;;;12.15;;
19406;SDS011;9839;53.364;-1.204;2024-03-06T14:05:19;30.17;;;12.80;;
19406;SDS011;9839;53.364;-1.204;2024-03-06T14:07:50;32.10;;;13.27;;
19406;SDS011;9839;53.364;-1.204;2024-03-06T14:10:18;28.95;;;12.38;;
19406;SDS011;9839;53.364;-1.204;2024-03-06T14:12:45;30.02;;;12.82;;
19406;SDS011;9839;53.364;-1.204;2024-03-06T14:15:10;27.90;;;13.35;;
19406;SDS011;9839;53.364;-1.204;2024-03-06T14:17:37;24.17;;;12.32;;
19406;SDS011;9839;53.364;-1.204;2024-03-06T14:20:03;30.42;;;12.98;;
19406;SDS011;9839;53.364;-1.204;2024-03-06T14:22:28;34.65;;;14.52;;
19406;SDS011;9839;53.364;-1.204;2024-03-06T14:24:54;29.90;;;13.88;;
19406;SDS011;9839;53.364;-1.204;2024-03-06T14:27:20;27.48;;;12.82;;
19406;SDS011;9839;53.364;-1.204;2024-03-06T14:29:45;27.08;;;13.75;;